createdAt,value
2022-08-03T00:00:50.660Z,9.6
2022-08-03T00:01:56.863Z,10.4
2022-08-03T00:03:03.089Z,10
2022-08-03T00:04:09.255Z,10.7
2022-08-03T00:05:15.452Z,10.9
2022-08-03T00:06:21.655Z,10.3
2022-08-03T00:07:27.857Z,10.5
2022-08-03T00:08:34.050Z,11.4
2022-08-03T00:09:40.243Z,11.8
2022-08-03T00:10:46.448Z,10.5
2022-08-03T00:11:52.651Z,10.7
2022-08-03T00:12:58.884Z,9.7
2022-08-03T00:14:05.063Z,9.6
2022-08-03T00:15:11.262Z,11.3
2022-08-03T00:16:16.466Z,11
2022-08-03T00:17:22.672Z,10.7
2022-08-03T00:18:28.873Z,10.1
2022-08-03T00:19:35.074Z,10.9
2022-08-03T00:20:41.260Z,10.5
2022-08-03T00:21:47.467Z,10.7
2022-08-03T00:22:53.658Z,10.2
2022-08-03T00:23:59.860Z,11.1
2022-08-03T00:25:06.051Z,11.3
2022-08-03T00:26:12.257Z,11.3
2022-08-03T00:27:18.465Z,11
2022-08-03T00:28:24.657Z,11.3
2022-08-03T00:29:30.872Z,11.2
2022-08-03T00:30:37.065Z,11.4
2022-08-03T00:31:43.258Z,11.3
2022-08-03T00:32:49.472Z,10.6
2022-08-03T00:33:55.672Z,11
2022-08-03T00:35:01.867Z,10.7
2022-08-03T00:36:08.076Z,11
2022-08-03T00:37:14.284Z,10.7
2022-08-03T00:38:20.482Z,11.4
2022-08-03T00:39:26.683Z,11.8
2022-08-03T00:40:32.879Z,11.1
2022-08-03T00:41:39.095Z,11
2022-08-03T00:42:45.301Z,11.2
2022-08-03T00:43:51.503Z,11.2
2022-08-03T00:44:57.708Z,11.5
2022-08-03T00:46:03.938Z,11.7
2022-08-03T00:47:10.107Z,11.4
2022-08-03T00:48:15.325Z,10.5
2022-08-03T00:49:21.530Z,11.3
2022-08-03T00:50:27.730Z,10.3
2022-08-03T00:51:33.939Z,11.1
2022-08-03T00:52:40.136Z,12.2
2022-08-03T00:53:46.352Z,9.8
2022-08-03T00:54:52.538Z,12.6
2022-08-03T00:55:58.738Z,11.7
2022-08-03T00:57:04.970Z,10.6
2022-08-03T00:58:11.169Z,11.3
2022-08-03T00:59:17.381Z,11.9
2022-08-03T01:00:23.591Z,11.3
2022-08-03T01:01:29.820Z,11.9
2022-08-03T01:02:36.004Z,11.4
2022-08-03T01:03:42.258Z,12.8
2022-08-03T01:04:48.417Z,12.2
2022-08-03T01:05:54.645Z,10.8
2022-08-03T01:07:00.817Z,11
2022-08-03T01:08:07.053Z,12.1
2022-08-03T01:09:13.234Z,12.6
2022-08-03T01:10:19.447Z,10.6
2022-08-03T01:11:25.652Z,12.4
2022-08-03T01:12:31.869Z,14
2022-08-03T01:13:38.066Z,11.7
2022-08-03T01:14:44.287Z,13.6
2022-08-03T01:15:50.489Z,13.7
2022-08-03T01:16:56.687Z,12.6
2022-08-03T01:18:02.904Z,12.2
2022-08-03T01:19:09.107Z,11.9
2022-08-03T01:20:15.320Z,12.9
2022-08-03T01:21:21.516Z,12.6
2022-08-03T01:22:27.712Z,12.1
2022-08-03T01:23:33.972Z,11.8
2022-08-03T01:24:40.138Z,11.1
2022-08-03T01:25:46.355Z,12
2022-08-03T01:26:52.549Z,12.4
2022-08-03T01:27:58.750Z,13.7
2022-08-03T01:29:05.061Z,12
2022-08-03T01:30:11.328Z,11.7
2022-08-03T01:31:16.589Z,12.3
2022-08-03T01:32:22.819Z,12.2
2022-08-03T01:33:29.003Z,12
2022-08-03T01:34:35.210Z,14
2022-08-03T01:35:41.419Z,12.2
2022-08-03T01:36:47.611Z,12
2022-08-03T01:37:53.826Z,12.6
2022-08-03T01:39:00.027Z,11.2
2022-08-03T01:40:06.229Z,12.2
2022-08-03T01:41:12.432Z,11
2022-08-03T01:42:18.637Z,12.7
2022-08-03T01:43:24.851Z,12.1
2022-08-03T01:44:31.083Z,11.2
2022-08-03T01:45:37.269Z,11.4
2022-08-03T01:46:43.490Z,11.5
2022-08-03T01:47:49.692Z,11.7
2022-08-03T01:48:55.908Z,12.8
2022-08-03T01:50:02.109Z,11.3
2022-08-03T01:51:08.320Z,11.4
2022-08-03T01:52:14.529Z,13
2022-08-03T01:53:20.749Z,13
2022-08-03T01:54:26.968Z,11.4
2022-08-03T01:55:33.160Z,13.3
2022-08-03T01:56:39.368Z,11.6
2022-08-03T01:57:45.576Z,12.5
2022-08-03T01:58:51.860Z,11.9
2022-08-03T01:59:57.125Z,11.9
2022-08-03T02:01:03.363Z,12.5
2022-08-03T02:02:09.537Z,11.2
2022-08-03T02:03:15.748Z,11.5
2022-08-03T02:04:21.938Z,11.4
2022-08-03T02:05:28.140Z,10.6
2022-08-03T02:06:34.347Z,12.4
2022-08-03T02:07:40.554Z,12.9
2022-08-03T02:08:46.747Z,12.9
2022-08-03T02:09:52.961Z,12.3
2022-08-03T02:10:59.152Z,12.5
2022-08-03T02:12:05.369Z,12.7
2022-08-03T02:13:11.566Z,13.6
2022-08-03T02:14:17.770Z,14.1
2022-08-03T02:15:23.985Z,12.3
2022-08-03T02:16:30.194Z,13.6
2022-08-03T02:17:36.406Z,12.9
2022-08-03T02:18:42.628Z,14.4
2022-08-03T02:19:48.834Z,11.1
2022-08-03T02:20:55.047Z,12.6
2022-08-03T02:22:01.257Z,13.1
2022-08-03T02:23:07.464Z,11.9
2022-08-03T02:24:13.665Z,12.1
2022-08-03T02:25:19.865Z,12.9
2022-08-03T02:26:26.073Z,11.9
2022-08-03T02:27:32.360Z,13.4
2022-08-03T02:28:37.650Z,12.5
2022-08-03T02:29:43.857Z,11.5
2022-08-03T02:30:50.066Z,12.3
2022-08-03T02:31:56.312Z,11.3
2022-08-03T02:33:02.515Z,12.5
2022-08-03T02:34:08.701Z,12.9
2022-08-03T02:35:14.919Z,13.3
2022-08-03T02:36:21.137Z,13.8
2022-08-03T02:37:27.335Z,14.8
2022-08-03T02:38:33.544Z,12.4
2022-08-03T02:39:39.758Z,11.7
2022-08-03T02:40:45.980Z,12.3
2022-08-03T02:41:52.186Z,13.3
2022-08-03T02:42:58.390Z,12.1
2022-08-03T02:44:04.598Z,13.7
2022-08-03T02:45:10.827Z,13.9
2022-08-03T02:46:17.024Z,13.6
2022-08-03T02:47:23.243Z,12.8
2022-08-03T02:48:29.458Z,13
2022-08-03T02:49:35.663Z,13.4
2022-08-03T02:50:41.866Z,13.8
2022-08-03T02:51:48.079Z,13.1
2022-08-03T02:52:54.299Z,11.9
2022-08-03T02:54:00.502Z,14.1
2022-08-03T02:55:06.715Z,13.3
2022-08-03T02:56:13.021Z,13.4
2022-08-03T02:57:18.298Z,14.2
2022-08-03T02:58:24.512Z,13.2
2022-08-03T02:59:30.730Z,13.2
2022-08-03T03:00:36.939Z,15.1
2022-08-03T03:01:43.147Z,13.8
2022-08-03T03:02:49.361Z,14.3
2022-08-03T03:03:55.585Z,14.3
2022-08-03T03:05:01.793Z,12.8
2022-08-03T03:06:08.021Z,14.3
2022-08-03T03:07:14.224Z,13.6
2022-08-03T03:08:20.443Z,13.2
2022-08-03T03:09:26.651Z,13.1
2022-08-03T03:10:32.861Z,14.4
2022-08-03T03:11:39.084Z,13.6
2022-08-03T03:12:45.297Z,13.2
2022-08-03T03:13:51.503Z,12.8
2022-08-03T03:14:57.726Z,14.2
2022-08-03T03:16:03.937Z,14.1
2022-08-03T03:17:10.139Z,12.8
2022-08-03T03:18:16.360Z,13.1
2022-08-03T03:19:22.568Z,12
2022-08-03T03:20:28.789Z,13.9
2022-08-03T03:21:35.011Z,12.2
2022-08-03T03:22:41.219Z,13.1
2022-08-03T03:23:47.435Z,12.9
2022-08-03T03:24:53.750Z,13.8
2022-08-03T03:25:59.025Z,15.7
2022-08-03T03:27:05.244Z,13.8
2022-08-03T03:28:11.445Z,15.3
2022-08-03T03:29:17.656Z,14.3
2022-08-03T03:30:23.882Z,13
2022-08-03T03:31:30.081Z,13.3
2022-08-03T03:32:36.304Z,14.1
2022-08-03T03:33:42.528Z,13.7
2022-08-03T03:34:48.727Z,13
2022-08-03T03:35:54.943Z,13.7
2022-08-03T03:37:01.162Z,14.1
2022-08-03T03:38:07.378Z,14.2
2022-08-03T03:39:13.587Z,14.4
2022-08-03T03:40:19.808Z,13.3
2022-08-03T03:41:26.026Z,13.9
2022-08-03T03:42:32.232Z,13.7
2022-08-03T03:43:38.473Z,13.3
2022-08-03T03:44:44.675Z,14.4
2022-08-03T03:45:50.908Z,13.7
2022-08-03T03:46:57.116Z,14.9
2022-08-03T03:48:03.327Z,13.5
2022-08-03T03:49:09.548Z,13.9
2022-08-03T03:50:15.773Z,14.3
2022-08-03T03:51:21.985Z,15.1
2022-08-03T03:52:28.211Z,13.8
2022-08-03T03:53:34.509Z,13.5
2022-08-03T03:54:39.796Z,13.9
2022-08-03T03:55:46.007Z,14.6
2022-08-03T03:56:52.220Z,15.8
2022-08-03T03:57:58.441Z,14
2022-08-03T03:59:04.665Z,14.4
2022-08-03T04:00:10.864Z,14.1
2022-08-03T04:01:17.094Z,14.4
2022-08-03T04:02:23.307Z,14.6
2022-08-03T04:03:29.519Z,14.6
2022-08-03T04:04:35.726Z,14.5
2022-08-03T04:05:41.948Z,13.1
2022-08-03T04:06:48.158Z,13.5
2022-08-03T04:07:54.373Z,13.6
2022-08-03T04:09:00.573Z,13.6
2022-08-03T04:10:06.788Z,15
2022-08-03T04:11:12.990Z,14.6
2022-08-03T04:12:19.212Z,14.4
2022-08-03T04:13:25.414Z,15
2022-08-03T04:14:31.640Z,13.6
2022-08-03T04:15:37.836Z,13.9
2022-08-03T04:16:44.064Z,15.5
2022-08-03T04:17:50.266Z,13.8
2022-08-03T04:18:56.495Z,12.6
2022-08-03T04:20:02.706Z,12.9
2022-08-03T04:21:08.894Z,11.8
2022-08-03T04:22:15.202Z,14.5
2022-08-03T04:23:20.491Z,11.8
2022-08-03T04:24:26.697Z,12
2022-08-03T04:25:32.905Z,13.6
2022-08-03T04:26:39.117Z,12
2022-08-03T04:27:45.325Z,11.7
2022-08-03T04:28:51.541Z,12.3
2022-08-03T04:29:57.735Z,12.5
2022-08-03T04:31:03.936Z,12.3
2022-08-03T04:32:10.152Z,12
2022-08-03T04:33:16.365Z,13.1
2022-08-03T04:34:22.574Z,13.4
2022-08-03T04:35:28.780Z,13.6
2022-08-03T04:36:34.977Z,13.8
2022-08-03T04:37:41.194Z,13.4
2022-08-03T04:38:47.389Z,22.2
2022-08-03T04:39:53.606Z,26.2
2022-08-03T04:40:59.807Z,33.7
2022-08-03T04:42:06.003Z,37.59
2022-08-03T04:43:12.204Z,40.7
2022-08-03T04:44:18.419Z,53.5
2022-08-03T04:45:24.613Z,30.7
2022-08-03T04:46:30.796Z,38.4
2022-08-03T04:47:37.007Z,26.2
2022-08-03T04:48:43.213Z,17.5
2022-08-03T04:49:49.400Z,20.9
2022-08-03T04:50:54.624Z,17.5
2022-08-03T04:52:00.838Z,12.9
2022-08-03T04:53:07.022Z,15.5
2022-08-03T04:54:12.240Z,14.6
2022-08-03T04:55:18.434Z,13.8
2022-08-03T04:56:23.636Z,12
2022-08-03T04:57:29.815Z,13.8
2022-08-03T04:58:36.003Z,11.4
2022-08-03T04:59:42.189Z,9.7
2022-08-03T05:00:48.331Z,9.2
2022-08-03T05:01:54.492Z,10.4
2022-08-03T05:03:00.637Z,8.8
2022-08-03T05:04:06.782Z,8.1
2022-08-03T05:05:12.913Z,8
2022-08-03T05:06:19.054Z,9.7
2022-08-03T05:07:25.153Z,8.5
2022-08-03T05:08:31.263Z,10
2022-08-03T05:09:37.363Z,8.7
2022-08-03T05:10:43.458Z,9.8
2022-08-03T05:11:49.552Z,9.3
2022-08-03T05:12:55.662Z,8.89
2022-08-03T05:14:01.760Z,8.1
2022-08-03T05:15:07.856Z,9.1
2022-08-03T05:16:13.951Z,7.7
2022-08-03T05:17:20.047Z,9.6
2022-08-03T05:18:26.126Z,9.1
2022-08-03T05:19:32.215Z,8.39
2022-08-03T05:20:38.303Z,7.4
2022-08-03T05:21:44.371Z,8.39
2022-08-03T05:22:50.445Z,8.5
2022-08-03T05:23:56.501Z,8.1
2022-08-03T05:25:02.557Z,7.2
2022-08-03T05:26:08.622Z,8.2
2022-08-03T05:27:14.674Z,8.1
2022-08-03T05:28:20.733Z,7.6
2022-08-03T05:29:26.761Z,8.89
2022-08-03T05:30:32.788Z,8.5
2022-08-03T05:31:38.823Z,8.2
2022-08-03T05:32:44.835Z,7.8
2022-08-03T05:33:50.852Z,7
2022-08-03T05:34:56.870Z,7.7
2022-08-03T05:36:02.861Z,9.1
2022-08-03T05:37:08.934Z,9.39
2022-08-03T05:38:15.015Z,8.39
2022-08-03T05:39:21.086Z,9.89
2022-08-03T05:40:27.151Z,10.2
2022-08-03T05:41:33.203Z,9.6
2022-08-03T05:42:39.261Z,7.8
2022-08-03T05:43:45.314Z,8.7
2022-08-03T05:44:51.367Z,9.39
2022-08-03T05:45:57.415Z,9.3
2022-08-03T05:47:03.475Z,10.2
2022-08-03T05:48:09.510Z,9.3
2022-08-03T05:49:15.557Z,11.8
2022-08-03T05:50:21.593Z,7.2
2022-08-03T05:51:27.759Z,7.4
2022-08-03T05:52:33.915Z,8.6
2022-08-03T05:53:40.069Z,8
2022-08-03T05:54:46.238Z,9.7
2022-08-03T05:55:52.411Z,7.9
2022-08-03T05:56:58.555Z,7.5
2022-08-03T05:58:04.688Z,7.7
2022-08-03T05:59:10.823Z,9.39
2022-08-03T06:00:16.974Z,9.2
2022-08-03T06:01:23.121Z,10
2022-08-03T06:02:29.249Z,8.2
2022-08-03T06:03:35.408Z,7.3
2022-08-03T06:04:41.522Z,9.6
2022-08-03T06:07:16.263Z,7.5
2022-08-03T06:08:21.510Z,8.7
2022-08-03T06:09:27.451Z,8.2
2022-08-03T06:10:33.391Z,7.9
2022-08-03T06:11:39.318Z,7.4
2022-08-03T06:12:45.246Z,7.3
2022-08-03T06:13:51.176Z,7.3
2022-08-03T06:14:57.103Z,8.8
2022-08-03T06:16:03.038Z,8.3
2022-08-03T06:17:08.961Z,6.4
2022-08-03T06:18:14.886Z,6.4
2022-08-03T06:19:20.818Z,6.6
2022-08-03T06:20:26.725Z,7.8
2022-08-03T06:21:32.648Z,7.2
2022-08-03T06:22:38.578Z,7.7
2022-08-03T06:23:44.481Z,7.6
2022-08-03T06:24:50.393Z,8.3
2022-08-03T06:25:56.320Z,6.8
2022-08-03T06:27:02.218Z,6.2
2022-08-03T06:28:08.128Z,7.2
2022-08-03T06:29:14.044Z,6.7
2022-08-03T06:30:19.949Z,6.1
2022-08-03T06:31:25.860Z,7
2022-08-03T06:32:31.762Z,7.1
2022-08-03T06:33:37.672Z,5.6
2022-08-03T06:34:43.594Z,6.3
2022-08-03T06:35:49.559Z,6.8
2022-08-03T06:36:55.528Z,7.2
2022-08-03T06:38:01.519Z,6.5
2022-08-03T06:39:07.520Z,8.7
2022-08-03T06:40:13.472Z,9.2
2022-08-03T06:41:19.450Z,8.2
2022-08-03T06:42:25.452Z,8.89
2022-08-03T06:43:31.426Z,8.1
2022-08-03T06:44:37.380Z,7.4
2022-08-03T06:45:43.364Z,7.4
2022-08-03T06:46:49.332Z,5.9
2022-08-03T06:47:55.299Z,7
2022-08-03T06:49:01.294Z,7.2
2022-08-03T06:50:07.363Z,7.4
2022-08-03T06:51:13.436Z,6.9
2022-08-03T06:52:19.549Z,6.3
2022-08-03T06:53:25.613Z,5.5
2022-08-03T06:54:31.683Z,6.1
2022-08-03T06:55:37.751Z,6.3
2022-08-03T06:56:43.828Z,5.7
2022-08-03T06:57:49.929Z,6.5
2022-08-03T06:58:55.978Z,6.5
2022-08-03T07:00:02.053Z,6
2022-08-03T07:01:08.107Z,6.2
2022-08-03T07:02:14.173Z,5.6
2022-08-03T07:03:20.678Z,7
2022-08-03T07:04:26.546Z,5.6
2022-08-03T07:05:32.865Z,5.7
2022-08-03T07:06:39.168Z,5.3
2022-08-03T07:07:45.471Z,5.1
2022-08-03T07:08:51.786Z,6.8
2022-08-03T07:09:58.084Z,7.3
2022-08-03T07:11:04.403Z,6.6
2022-08-03T07:12:10.703Z,5.9
2022-08-03T07:13:17.018Z,5.7
2022-08-03T07:14:23.321Z,5.6
2022-08-03T07:15:29.634Z,6.7
2022-08-03T07:16:35.942Z,5.7
2022-08-03T07:17:42.261Z,5.8
2022-08-03T07:21:03.669Z,6
2022-08-03T07:22:57.165Z,6.3
2022-08-03T07:24:03.029Z,5.7
2022-08-03T07:25:08.886Z,6.6
2022-08-03T07:26:14.753Z,6
2022-08-03T07:27:20.618Z,5.1
2022-08-03T07:28:26.471Z,6.3
2022-08-03T07:29:32.326Z,7.2
2022-08-03T07:30:38.210Z,7.1
2022-08-03T07:31:44.054Z,6.5
2022-08-03T07:32:49.936Z,6.3
2022-08-03T07:33:55.791Z,5.6
2022-08-03T07:35:01.651Z,5.4
2022-08-03T07:36:07.524Z,5.6
2022-08-03T07:37:13.379Z,6.9
2022-08-03T07:38:19.245Z,5.3
2022-08-03T07:39:25.118Z,5.3
2022-08-03T07:40:30.970Z,5.5
2022-08-03T07:41:36.839Z,5.5
2022-08-03T07:42:42.707Z,5.9
2022-08-03T07:43:48.564Z,5.3
2022-08-03T07:44:54.449Z,5.9
2022-08-03T07:46:00.290Z,5.8
2022-08-03T07:47:06.163Z,5
2022-08-03T07:48:11.997Z,5
2022-08-03T07:49:17.847Z,5.4
2022-08-03T07:50:23.783Z,4.9
2022-08-03T07:51:29.717Z,5.1
2022-08-03T07:52:35.647Z,5.5
2022-08-03T07:53:41.587Z,5.5
2022-08-03T07:54:47.517Z,5
2022-08-03T07:55:53.454Z,5.9
2022-08-03T07:56:59.404Z,5.7
2022-08-03T07:58:05.321Z,5.2
2022-08-03T07:59:11.257Z,6.3
2022-08-03T08:00:17.200Z,6
2022-08-03T08:01:23.133Z,5.5
2022-08-03T08:02:29.073Z,5.1
2022-08-03T08:03:35.010Z,4.9
2022-08-03T08:04:41.075Z,5.5
2022-08-03T08:05:47.143Z,4.69
2022-08-03T08:06:53.233Z,4.8
2022-08-03T08:07:59.265Z,5.8
2022-08-03T08:09:05.330Z,6.7
2022-08-03T08:10:11.380Z,5.5
2022-08-03T08:11:17.455Z,4.6
2022-08-03T08:12:23.512Z,5.5
2022-08-03T08:13:29.574Z,5.1
2022-08-03T08:14:35.633Z,5.9
2022-08-03T08:15:41.698Z,5.7
2022-08-03T08:16:47.756Z,4.6
2022-08-03T08:17:53.818Z,6.3
2022-08-03T08:20:28.363Z,6.4
2022-08-03T08:21:34.675Z,5
2022-08-03T08:22:41.004Z,5.9
2022-08-03T08:23:47.317Z,6
2022-08-03T08:24:53.614Z,5.4
2022-08-03T08:25:59.926Z,5
2022-08-03T08:27:06.226Z,5.4
2022-08-03T08:28:12.530Z,5
2022-08-03T08:29:18.863Z,4.8
2022-08-03T08:30:25.145Z,5.6
2022-08-03T08:31:31.449Z,6.5
2022-08-03T08:32:37.761Z,5
2022-08-03T08:33:44.078Z,5.7
2022-08-03T08:37:05.505Z,4.3
2022-08-03T08:38:59.018Z,5.2
2022-08-03T08:40:04.885Z,5.6
2022-08-03T08:41:10.766Z,5.4
2022-08-03T08:42:16.637Z,4.69
2022-08-03T08:43:22.493Z,4.5
2022-08-03T08:44:28.344Z,5.4
2022-08-03T08:45:34.238Z,5.4
2022-08-03T08:46:40.102Z,5.6
2022-08-03T08:47:45.952Z,4.8
2022-08-03T08:48:51.847Z,4.9
2022-08-03T08:49:57.695Z,5.5
2022-08-03T08:51:03.578Z,6
2022-08-03T08:52:09.442Z,5.5
2022-08-03T08:53:15.318Z,5.7
2022-08-03T08:54:21.188Z,5.4
2022-08-03T08:55:27.073Z,5.5
2022-08-03T08:56:32.926Z,4.6
2022-08-03T08:57:38.814Z,4.8
2022-08-03T08:58:44.673Z,4.9
2022-08-03T08:59:50.542Z,3.7
2022-08-03T09:00:56.426Z,4
2022-08-03T09:02:02.305Z,4.4
2022-08-03T09:03:08.174Z,4.69
2022-08-03T09:04:14.045Z,4.1
2022-08-03T09:05:19.914Z,3.7
2022-08-03T09:06:25.843Z,4.4
2022-08-03T09:07:31.816Z,4.1
2022-08-03T09:08:37.751Z,4
2022-08-03T09:09:43.716Z,4.1
2022-08-03T09:10:49.601Z,4.69
2022-08-03T09:11:55.545Z,4.1
2022-08-03T09:13:01.487Z,4.5
2022-08-03T09:14:07.416Z,4.9
2022-08-03T09:15:13.355Z,5.6
2022-08-03T09:16:19.316Z,3.8
2022-08-03T09:17:25.252Z,4
2022-08-03T09:18:31.200Z,3.7
2022-08-03T09:19:37.132Z,5
2022-08-03T09:20:43.223Z,4.4
2022-08-03T09:21:49.297Z,5.3
2022-08-03T09:22:55.364Z,4.6
2022-08-03T09:24:01.458Z,3.8
2022-08-03T09:25:07.515Z,5.4
2022-08-03T09:26:13.579Z,4.5
2022-08-03T09:27:19.653Z,4.19
2022-08-03T09:28:25.736Z,4.19
2022-08-03T09:29:31.810Z,4.3
2022-08-03T09:30:37.894Z,4.1
2022-08-03T09:31:43.969Z,4.8
2022-08-03T09:32:50.055Z,4.3
2022-08-03T09:33:56.130Z,4.4
2022-08-03T09:35:02.445Z,4
2022-08-03T09:36:08.773Z,5.3
2022-08-03T09:37:15.116Z,5.6
2022-08-03T09:38:21.437Z,4
2022-08-03T09:39:27.764Z,4.3
2022-08-03T09:40:34.082Z,4.5
2022-08-03T09:41:40.397Z,4.3
2022-08-03T09:42:46.739Z,4.5
2022-08-03T09:43:53.066Z,3.8
2022-08-03T09:44:59.412Z,4
2022-08-03T09:46:05.751Z,5.3
2022-08-03T09:47:12.092Z,5.2
2022-08-03T09:48:18.437Z,4.9
2022-08-03T09:51:43.214Z,4.3
2022-08-03T09:53:33.519Z,4.3
2022-08-03T09:54:39.412Z,4.9
2022-08-03T09:55:45.309Z,4.69
2022-08-03T09:56:51.214Z,4.4
2022-08-03T09:57:57.104Z,4.19
2022-08-03T09:59:03.014Z,5.3
2022-08-03T10:00:08.896Z,3.8
2022-08-03T10:01:14.802Z,4.8
2022-08-03T10:02:20.690Z,4.4
2022-08-03T10:03:26.584Z,4.3
2022-08-03T10:04:32.482Z,3.7
2022-08-03T10:05:38.377Z,3.9
2022-08-03T10:06:44.285Z,4.9
2022-08-03T10:07:50.195Z,4.4
2022-08-03T10:08:56.082Z,4.69
2022-08-03T10:10:02.013Z,3.5
2022-08-03T10:11:07.902Z,4
2022-08-03T10:12:13.815Z,4.1
2022-08-03T10:13:19.728Z,3.7
2022-08-03T10:14:25.637Z,3.8
2022-08-03T10:15:31.545Z,5.1
2022-08-03T10:16:37.457Z,4.8
2022-08-03T10:17:43.412Z,3.8
2022-08-03T10:18:49.292Z,4.1
2022-08-03T10:19:55.211Z,4
2022-08-03T10:21:01.199Z,3.9
2022-08-03T10:22:07.200Z,4.69
2022-08-03T10:23:13.195Z,4
2022-08-03T10:24:19.180Z,3.7
2022-08-03T10:25:25.181Z,4.4
2022-08-03T10:26:31.212Z,4.5
2022-08-03T10:27:37.207Z,5.5
2022-08-03T10:28:43.211Z,4.69
2022-08-03T10:29:49.214Z,4
2022-08-03T10:30:55.218Z,4.9
2022-08-03T10:32:01.242Z,4.1
2022-08-03T10:33:07.230Z,3.9
2022-08-03T10:34:13.234Z,4.3
2022-08-03T10:35:19.359Z,4.6
2022-08-03T10:36:25.479Z,4.3
2022-08-03T10:37:31.613Z,3.8
2022-08-03T10:38:37.739Z,4.1
2022-08-03T10:39:43.864Z,4.19
2022-08-03T10:40:49.981Z,4
2022-08-03T10:41:56.105Z,4.3
2022-08-03T10:43:02.235Z,4.3
2022-08-03T10:44:08.352Z,4.1
2022-08-03T10:45:14.473Z,4.3
2022-08-03T10:46:20.608Z,4.9
2022-08-03T10:47:26.720Z,4.5
2022-08-03T10:48:32.854Z,4.3
2022-08-03T10:51:07.530Z,4.19
2022-08-03T10:52:12.785Z,4.4
2022-08-03T10:53:18.708Z,4.19
2022-08-03T10:54:24.610Z,4.5
2022-08-03T10:55:30.536Z,4.4
2022-08-03T10:56:36.472Z,5
2022-08-03T10:57:42.419Z,4.1
2022-08-03T10:58:48.300Z,3.5
2022-08-03T10:59:54.229Z,4.3
2022-08-03T11:01:00.148Z,4.5
2022-08-03T11:02:06.079Z,4.6
2022-08-03T11:03:12.010Z,5
2022-08-03T11:04:17.958Z,4.1
2022-08-03T11:05:23.859Z,4.1
2022-08-03T11:06:29.790Z,4.9
2022-08-03T11:07:35.729Z,4.8
2022-08-03T11:08:41.674Z,3.5
2022-08-03T11:09:47.571Z,4.4
2022-08-03T11:10:53.502Z,4.9
2022-08-03T11:11:59.430Z,4.19
2022-08-03T11:13:05.349Z,4.9
2022-08-03T11:14:11.275Z,4
2022-08-03T11:15:17.218Z,4.8
2022-08-03T11:16:23.138Z,3.7
2022-08-03T11:17:29.090Z,4.5
2022-08-03T11:18:35.010Z,4.3
2022-08-03T11:19:41.015Z,3.6
2022-08-03T11:20:47.031Z,4.1
2022-08-03T11:21:53.032Z,3.9
2022-08-03T11:22:59.052Z,4.8
2022-08-03T11:24:05.066Z,4.6
2022-08-03T11:25:11.057Z,4
2022-08-03T11:26:17.065Z,4.9
2022-08-03T11:27:23.082Z,4.19
2022-08-03T11:28:29.109Z,5.5
2022-08-03T11:29:35.095Z,4.4
2022-08-03T11:30:41.103Z,3.3
2022-08-03T11:31:47.111Z,4.5
2022-08-03T11:32:53.118Z,4.3
2022-08-03T11:33:59.250Z,4
2022-08-03T11:35:05.386Z,3.9
2022-08-03T11:36:11.536Z,3.9
2022-08-03T11:37:17.681Z,4.3
2022-08-03T11:38:23.779Z,4.6
2022-08-03T11:39:29.917Z,5.2
2022-08-03T11:40:36.053Z,4.6
2022-08-03T11:41:42.168Z,4.19
2022-08-03T11:42:48.306Z,5.1
2022-08-03T11:43:54.425Z,4.4
2022-08-03T11:45:00.554Z,4.8
2022-08-03T11:46:06.690Z,4.9
2022-08-03T11:47:12.885Z,4.8
2022-08-03T11:50:09.496Z,3.7
2022-08-03T11:51:14.759Z,3.9
2022-08-03T11:52:20.685Z,4.1
2022-08-03T11:53:26.619Z,4.1
2022-08-03T11:54:32.538Z,4.6
2022-08-03T11:55:38.472Z,3.9
2022-08-03T11:56:44.408Z,4.8
2022-08-03T11:57:50.357Z,4.8
2022-08-03T11:58:56.269Z,4.9
2022-08-03T12:00:02.208Z,4
2022-08-03T12:01:08.133Z,4.69
2022-08-03T12:02:14.057Z,4.19
2022-08-03T12:03:19.978Z,4.6
2022-08-03T12:04:25.925Z,4.19
2022-08-03T12:05:31.846Z,4.69
2022-08-03T12:06:37.785Z,4.1
2022-08-03T12:07:43.718Z,4.4
2022-08-03T12:08:49.679Z,4.3
2022-08-03T12:09:55.578Z,3.9
2022-08-03T12:11:01.508Z,4.19
2022-08-03T12:12:07.435Z,4.4
2022-08-03T12:13:13.380Z,4
2022-08-03T12:14:19.307Z,5
2022-08-03T12:15:25.223Z,4.4
2022-08-03T12:16:31.161Z,4
2022-08-03T12:17:37.097Z,3.9
2022-08-03T12:18:43.091Z,4.69
2022-08-03T12:19:49.101Z,5.8
2022-08-03T12:20:55.095Z,3.8
2022-08-03T12:22:01.097Z,4.3
2022-08-03T12:23:07.103Z,4
2022-08-03T12:24:13.137Z,3.5
2022-08-03T12:25:19.109Z,4.1
2022-08-03T12:26:25.109Z,4
2022-08-03T12:27:31.100Z,3.6
2022-08-03T12:28:37.106Z,4.4
2022-08-03T12:29:43.115Z,4
2022-08-03T12:30:49.119Z,4.1
2022-08-03T12:31:55.104Z,3.6
2022-08-03T12:33:01.254Z,4.19
2022-08-03T12:34:07.378Z,3.7
2022-08-03T12:35:13.506Z,3.3
2022-08-03T12:36:19.629Z,3.8
2022-08-03T12:37:25.752Z,3.1
2022-08-03T12:38:31.885Z,3.9
2022-08-03T12:39:38.011Z,5.1
2022-08-03T12:40:44.137Z,4.1
2022-08-03T12:41:50.269Z,3.8
2022-08-03T12:42:56.413Z,3.3
2022-08-03T12:44:02.530Z,5.8
2022-08-03T12:45:08.664Z,3.8
2022-08-03T12:46:14.785Z,4
2022-08-03T12:48:49.502Z,4.3
2022-08-03T12:49:54.792Z,4.19
2022-08-03T12:51:00.687Z,4
2022-08-03T12:52:06.613Z,3.3
2022-08-03T12:53:12.544Z,3.6
2022-08-03T12:54:18.478Z,4.69
2022-08-03T12:55:24.400Z,4.4
2022-08-03T12:56:30.336Z,3.5
2022-08-03T12:57:36.255Z,4
2022-08-03T12:58:42.179Z,3.8
2022-08-03T12:59:48.111Z,3.5
2022-08-03T13:00:54.044Z,4.19
2022-08-03T13:01:59.965Z,4.69
2022-08-03T13:03:05.915Z,3.9
2022-08-03T13:04:11.833Z,3.9
2022-08-03T13:05:17.775Z,4.3
2022-08-03T13:06:23.732Z,4.19
2022-08-03T13:07:29.636Z,3.9
2022-08-03T13:08:35.572Z,3.6
2022-08-03T13:09:41.505Z,4.4
2022-08-03T13:10:47.443Z,4.8
2022-08-03T13:11:53.377Z,3.7
2022-08-03T13:12:59.333Z,3.9
2022-08-03T13:14:05.247Z,4
2022-08-03T13:15:11.175Z,5.2
2022-08-03T13:16:17.094Z,4.6
2022-08-03T13:17:23.132Z,4.1
2022-08-03T13:18:29.112Z,4.3
2022-08-03T13:19:35.127Z,4
2022-08-03T13:20:41.110Z,5
2022-08-03T13:21:47.112Z,4.19
2022-08-03T13:22:53.109Z,5.3
2022-08-03T13:23:59.103Z,3.6
2022-08-03T13:25:05.117Z,5
2022-08-03T13:26:11.116Z,4.4
2022-08-03T13:27:17.136Z,5
2022-08-03T13:28:23.151Z,3.6
2022-08-03T13:29:29.145Z,4.1
2022-08-03T13:30:35.153Z,4.5
2022-08-03T13:31:41.291Z,4
2022-08-03T13:32:47.423Z,5.1
2022-08-03T13:33:53.568Z,4
2022-08-03T13:34:59.695Z,4.9
2022-08-03T13:36:05.835Z,4.6
2022-08-03T13:37:11.976Z,3.5
2022-08-03T13:38:18.112Z,4.4
2022-08-03T13:39:24.241Z,4.69
2022-08-03T13:40:30.395Z,3.9
2022-08-03T13:41:36.524Z,3.7
2022-08-03T13:42:42.653Z,4.1
2022-08-03T13:43:48.783Z,4.19
2022-08-03T13:44:54.923Z,4.6
2022-08-03T13:47:51.617Z,3.3
2022-08-03T13:48:56.844Z,3.9
2022-08-03T13:50:02.787Z,4.1
2022-08-03T13:51:08.703Z,4.1
2022-08-03T13:52:14.638Z,3.8
2022-08-03T13:53:20.614Z,4.3
2022-08-03T13:54:26.495Z,5.5
2022-08-03T13:55:32.427Z,5.8
2022-08-03T13:56:38.338Z,4.6
2022-08-03T13:57:44.265Z,4.6
2022-08-03T13:58:50.211Z,4.1
2022-08-03T13:59:56.126Z,4.19
2022-08-03T14:01:02.049Z,3.8
2022-08-03T14:02:07.969Z,4.3
2022-08-03T14:03:13.893Z,4.19
2022-08-03T14:04:19.829Z,4.6
2022-08-03T14:05:25.744Z,4.69
2022-08-03T14:06:31.674Z,4
2022-08-03T14:07:37.625Z,4.4
2022-08-03T14:08:43.534Z,4.6
2022-08-03T14:09:49.458Z,3.7
2022-08-03T14:10:55.395Z,4.8
2022-08-03T14:12:01.288Z,3.9
2022-08-03T14:13:07.216Z,4.9
2022-08-03T14:14:13.154Z,3.4
2022-08-03T14:15:19.077Z,3.8
2022-08-03T14:16:25.103Z,4.4
2022-08-03T14:17:31.090Z,3.5
2022-08-03T14:18:37.097Z,4.3
2022-08-03T14:19:43.099Z,4
2022-08-03T14:20:49.116Z,3.6
2022-08-03T14:21:55.117Z,4.4
2022-08-03T14:23:01.129Z,4.5
2022-08-03T14:24:07.143Z,4
2022-08-03T14:25:13.145Z,5.1
2022-08-03T14:26:19.176Z,4.5
2022-08-03T14:27:25.179Z,4.19
2022-08-03T14:28:31.189Z,4
2022-08-03T14:29:37.182Z,4.9
2022-08-03T14:30:43.335Z,4.5
2022-08-03T14:31:49.452Z,4.6
2022-08-03T14:32:55.590Z,4
2022-08-03T14:34:01.742Z,4.3
2022-08-03T14:35:07.879Z,5.9
2022-08-03T14:36:14.002Z,4.5
2022-08-03T14:37:20.117Z,3.8
2022-08-03T14:38:26.259Z,5
2022-08-03T14:39:32.378Z,3.9
2022-08-03T14:40:38.516Z,4.4
2022-08-03T14:41:44.661Z,4.9
2022-08-03T14:42:50.780Z,4.3
2022-08-03T14:43:56.919Z,4.1
2022-08-03T14:46:31.627Z,3.8
2022-08-03T14:47:36.900Z,4.1
2022-08-03T14:48:42.849Z,4
2022-08-03T14:50:10.265Z,4.5
2022-08-03T14:50:54.734Z,5
2022-08-03T14:52:00.673Z,4.4
2022-08-03T14:53:06.608Z,4.8
2022-08-03T14:54:12.545Z,4.69
2022-08-03T14:55:18.499Z,4.6
2022-08-03T14:56:24.422Z,5.3
2022-08-03T14:57:30.355Z,4.9
2022-08-03T14:58:36.300Z,5
2022-08-03T14:59:42.233Z,4.6
2022-08-03T15:00:48.170Z,4.3
2022-08-03T15:01:54.095Z,3.3
2022-08-03T15:03:00.030Z,4.3
2022-08-03T15:04:05.956Z,4.69
2022-08-03T15:05:11.896Z,3.4
2022-08-03T15:06:17.828Z,4
2022-08-03T15:07:23.760Z,5.1
2022-08-03T15:08:29.683Z,4.5
2022-08-03T15:09:35.615Z,4
2022-08-03T15:10:41.557Z,5.1
2022-08-03T15:11:47.493Z,4.8
2022-08-03T15:12:53.692Z,4.5
2022-08-03T15:13:59.386Z,4.9
2022-08-03T15:15:05.389Z,5.2
2022-08-03T15:16:11.410Z,5
2022-08-03T15:17:17.425Z,4.19
2022-08-03T15:18:23.486Z,4.4
2022-08-03T15:19:29.461Z,3.9
2022-08-03T15:20:35.483Z,4.69
2022-08-03T15:21:41.503Z,5.2
2022-08-03T15:22:47.506Z,4.19
2022-08-03T15:23:53.526Z,3.9
2022-08-03T15:24:59.538Z,5.1